createdAt,value
2023-05-02T00:01:49.607Z,58.91
2023-05-02T00:04:16.639Z,59.27
2023-05-02T00:06:43.594Z,58.86
2023-05-02T00:09:10.653Z,58.65
2023-05-02T00:11:37.549Z,58.58
2023-05-02T00:14:04.491Z,58.49
2023-05-02T00:16:33.626Z,58.05
2023-05-02T00:19:00.555Z,57.93
2023-05-02T00:21:27.369Z,58.45
2023-05-02T00:23:54.230Z,58.17
2023-05-02T00:26:21.180Z,58.59
2023-05-02T00:28:47.984Z,58.13
2023-05-02T00:31:15.059Z,57.69
2023-05-02T00:33:41.961Z,58.85
2023-05-02T00:36:19.506Z,59.18
2023-05-02T00:38:46.549Z,58.68
2023-05-02T00:41:13.395Z,59.58
2023-05-02T00:43:40.328Z,59.83
2023-05-02T00:46:07.452Z,59.62
2023-05-02T00:48:35.569Z,59.61
2023-05-02T00:51:04.670Z,59.82
2023-05-02T00:53:32.123Z,60.54
2023-05-02T00:55:59.691Z,61.28
2023-05-02T00:58:27.864Z,62.70
2023-05-02T01:01:07.525Z,63.65
2023-05-02T01:04:04.862Z,62.97
2023-05-02T01:06:44.258Z,62.00
2023-05-02T01:09:23.130Z,60.43
2023-05-02T01:12:04.440Z,61.95
2023-05-02T01:14:42.917Z,62.05
2023-05-02T01:17:14.177Z,62.49
2023-05-02T01:19:47.730Z,62.57
2023-05-02T01:22:16.544Z,60.77
2023-05-02T01:24:48.907Z,60.61
2023-05-02T01:27:43.731Z,60.34
2023-05-02T01:30:12.722Z,60.89
2023-05-02T01:32:41.861Z,61.49
2023-05-02T01:35:10.926Z,62.65
2023-05-02T01:37:40.207Z,62.13
2023-05-02T01:40:09.714Z,61.98
2023-05-02T01:42:38.326Z,62.42
2023-05-02T01:45:08.038Z,62.45
2023-05-02T01:47:36.719Z,62.31
2023-05-02T01:50:09.152Z,62.00
2023-05-02T01:52:37.036Z,61.23
2023-05-02T01:55:06.348Z,59.60
2023-05-02T01:57:33.496Z,59.34
2023-05-02T02:00:02.156Z,59.66
2023-05-02T02:02:30.690Z,60.58
2023-05-02T02:04:59.977Z,61.27
2023-05-02T02:07:26.920Z,62.11
2023-05-02T02:09:53.876Z,62.53
2023-05-02T02:12:28.567Z,61.75
2023-05-02T02:15:13.790Z,63.99
2023-05-02T02:17:44.754Z,65.35
2023-05-02T02:20:13.490Z,63.90
2023-05-02T02:22:42.933Z,63.26
2023-05-02T02:25:17.724Z,62.77
2023-05-02T02:27:44.647Z,61.87
2023-05-02T02:30:11.945Z,61.69
2023-05-02T02:32:39.146Z,60.98
2023-05-02T02:35:06.638Z,60.84
2023-05-02T02:37:37.860Z,60.42
2023-05-02T02:40:08.615Z,60.48
2023-05-02T02:43:12.685Z,60.36
2023-05-02T02:45:46.415Z,61.25
2023-05-02T02:48:47.973Z,61.28
2023-05-02T02:51:26.105Z,61.28
2023-05-02T02:54:19.115Z,61.51
2023-05-02T02:57:02.063Z,62.39
2023-05-02T02:59:38.700Z,61.64
2023-05-02T03:02:08.903Z,61.77
2023-05-02T03:04:39.686Z,61.21
2023-05-02T03:07:06.582Z,60.94
2023-05-02T03:09:43.933Z,60.87
2023-05-02T03:12:11.460Z,61.71
2023-05-02T03:14:39.358Z,61.80
2023-05-02T03:17:07.113Z,61.59
2023-05-02T03:19:34.442Z,62.26
2023-05-02T03:22:01.186Z,61.62
2023-05-02T03:24:28.079Z,61.53
2023-05-02T03:26:56.228Z,63.70
2023-05-02T03:29:23.213Z,65.81
2023-05-02T03:31:50.096Z,65.42
2023-05-02T03:34:16.926Z,64.36
2023-05-02T03:36:43.795Z,63.27
2023-05-02T03:39:10.667Z,62.96
2023-05-02T03:41:37.418Z,63.18
2023-05-02T03:44:04.550Z,60.55
2023-05-02T03:46:31.515Z,59.51
2023-05-02T03:48:58.653Z,63.42
2023-05-02T03:51:25.443Z,63.73
2023-05-02T03:53:52.430Z,62.46
2023-05-02T03:56:19.880Z,64.44
2023-05-02T03:58:47.046Z,64.35
2023-05-02T04:01:15.034Z,63.84
2023-05-02T04:03:42.341Z,58.00
2023-05-02T04:06:09.251Z,55.00
2023-05-02T04:08:36.125Z,60.03
2023-05-02T04:11:02.934Z,61.53
2023-05-02T04:13:29.806Z,60.70
2023-05-02T04:15:56.915Z,60.15
2023-05-02T04:18:23.688Z,58.73
2023-05-02T04:20:50.789Z,58.81
2023-05-02T04:23:17.704Z,56.02
2023-05-02T04:25:54.685Z,53.73
2023-05-02T04:28:23.061Z,50.33
2023-05-02T04:30:50.596Z,48.98
2023-05-02T04:33:18.289Z,48.44
2023-05-02T04:35:46.253Z,47.07
2023-05-02T04:38:13.090Z,47.84
2023-05-02T04:40:40.265Z,48.44
2023-05-02T04:43:07.531Z,48.28
2023-05-02T04:45:37.546Z,47.16
2023-05-02T04:48:05.067Z,45.24
2023-05-02T04:50:32.097Z,45.75
2023-05-02T04:52:58.912Z,44.12
2023-05-02T04:55:25.680Z,45.87
2023-05-02T04:57:52.581Z,45.17
2023-05-02T05:00:19.552Z,45.89
2023-05-02T05:02:46.374Z,45.42
2023-05-02T05:05:13.413Z,44.58
2023-05-02T05:07:40.222Z,43.77
2023-05-02T05:10:07.647Z,44.25
2023-05-02T05:12:34.545Z,43.37
2023-05-02T05:15:01.404Z,44.79
2023-05-02T05:17:28.297Z,42.19
2023-05-02T05:19:55.208Z,42.81
2023-05-02T05:22:22.047Z,44.88
2023-05-02T05:24:54.955Z,44.69
2023-05-02T05:27:22.182Z,44.70
2023-05-02T05:29:49.022Z,44.35
2023-05-02T05:32:15.897Z,42.83
2023-05-02T05:34:42.726Z,42.98
2023-05-02T05:37:09.576Z,42.28
2023-05-02T05:39:36.615Z,44.14
2023-05-02T05:42:03.414Z,43.72
2023-05-02T05:44:30.140Z,42.56
2023-05-02T05:46:56.995Z,43.92
2023-05-02T05:49:23.955Z,44.25
2023-05-02T05:51:50.711Z,44.36
2023-05-02T05:54:17.926Z,44.75
2023-05-02T05:56:45.312Z,45.07
2023-05-02T05:59:12.460Z,44.26
2023-05-02T06:01:39.530Z,44.63
2023-05-02T06:04:06.949Z,41.98
2023-05-02T06:06:34.431Z,41.04
2023-05-02T06:09:01.848Z,43.20
2023-05-02T06:11:29.224Z,42.17
2023-05-02T06:13:56.169Z,41.78
2023-05-02T06:16:23.052Z,41.19
2023-05-02T06:18:51.775Z,37.96
2023-05-02T06:21:18.743Z,38.25
2023-05-02T06:23:45.656Z,35.78
2023-05-02T06:26:12.483Z,36.16
2023-05-02T06:28:39.267Z,35.06
2023-05-02T06:31:06.491Z,35.01
2023-05-02T06:33:34.744Z,34.33
2023-05-02T06:36:02.204Z,32.54
2023-05-02T06:38:29.790Z,34.26
2023-05-02T06:40:56.670Z,33.79
2023-05-02T06:43:23.580Z,34.17
2023-05-02T06:45:54.171Z,33.59
2023-05-02T06:48:21.178Z,33.46
2023-05-02T06:50:48.866Z,33.62
2023-05-02T06:53:15.902Z,31.88
2023-05-02T06:55:42.993Z,32.64
2023-05-02T06:58:10.001Z,32.33
2023-05-02T07:00:37.021Z,32.00
2023-05-02T07:03:04.229Z,32.20
2023-05-02T07:05:31.147Z,32.50
2023-05-02T07:07:58.098Z,32.72
2023-05-02T07:10:25.080Z,33.12
2023-05-02T07:12:51.981Z,33.58
2023-05-02T07:15:19.133Z,32.36
2023-05-02T07:17:46.043Z,32.35
2023-05-02T07:20:12.916Z,33.11
2023-05-02T07:22:39.901Z,31.68
2023-05-02T07:25:06.897Z,30.29
2023-05-02T07:27:33.797Z,30.78
2023-05-02T07:30:01.057Z,30.40
2023-05-02T07:32:28.290Z,30.35
2023-05-02T07:34:58.098Z,31.00
2023-05-02T07:37:24.893Z,28.85
2023-05-02T07:39:51.843Z,28.55
2023-05-02T07:42:18.771Z,29.97
2023-05-02T07:44:45.744Z,30.69
2023-05-02T07:47:12.533Z,30.15
2023-05-02T07:49:39.413Z,29.90
2023-05-02T07:52:06.233Z,29.51
2023-05-02T07:54:33.023Z,29.57
2023-05-02T07:56:59.845Z,29.19
2023-05-02T07:59:26.746Z,29.33
2023-05-02T08:01:53.617Z,28.79
2023-05-02T08:04:20.617Z,28.82
2023-05-02T08:06:47.649Z,29.37
2023-05-02T08:09:14.506Z,27.52
2023-05-02T08:11:41.355Z,28.60
2023-05-02T08:14:08.292Z,27.40
2023-05-02T08:16:35.438Z,27.35
2023-05-02T08:19:02.364Z,26.50
2023-05-02T08:21:29.417Z,26.85
2023-05-02T08:23:58.836Z,26.11
2023-05-02T08:26:26.266Z,27.77
2023-05-02T08:28:53.751Z,26.94
2023-05-02T08:31:21.247Z,27.94
2023-05-02T08:33:48.337Z,26.46
2023-05-02T08:36:17.465Z,26.63
2023-05-02T08:38:45.780Z,28.41
2023-05-02T08:41:19.135Z,27.18
2023-05-02T08:43:47.070Z,27.27
2023-05-02T08:46:15.542Z,26.34
2023-05-02T08:48:44.872Z,26.37
2023-05-02T08:51:13.714Z,27.28
2023-05-02T08:53:41.590Z,27.93
2023-05-02T08:56:09.988Z,25.50
2023-05-02T08:58:38.637Z,26.35
2023-05-02T09:01:20.122Z,26.55
2023-05-02T09:03:48.408Z,26.80
2023-05-02T09:06:21.396Z,26.92
2023-05-02T09:08:51.882Z,29.00
2023-05-02T09:11:19.615Z,26.91
2023-05-02T09:13:48.719Z,26.24
2023-05-02T09:16:20.922Z,27.42
2023-05-02T09:18:49.767Z,27.13
2023-05-02T09:21:20.648Z,26.33
2023-05-02T09:23:53.222Z,27.26
2023-05-02T09:26:25.767Z,26.32
2023-05-02T09:28:55.002Z,25.76
2023-05-02T09:31:49.884Z,26.56
2023-05-02T09:34:16.225Z,27.16
2023-05-02T09:36:47.752Z,25.95
2023-05-02T09:39:16.907Z,27.37
2023-05-02T09:41:45.899Z,27.99
2023-05-02T09:44:19.722Z,26.17
2023-05-02T09:46:49.197Z,26.23
2023-05-02T09:49:16.977Z,26.80
2023-05-02T09:51:44.075Z,26.39
2023-05-02T09:54:11.079Z,26.27
2023-05-02T09:56:54.416Z,27.19
2023-05-02T09:59:21.307Z,26.52
2023-05-02T10:01:56.093Z,26.49
2023-05-02T10:04:23.251Z,26.82
2023-05-02T10:06:52.208Z,26.96
2023-05-02T10:09:21.723Z,27.02
2023-05-02T10:11:53.859Z,26.09
2023-05-02T10:14:23.003Z,25.50
2023-05-02T10:17:08.848Z,26.60
2023-05-02T10:19:38.460Z,26.36
2023-05-02T10:22:06.511Z,25.47
2023-05-02T10:24:33.467Z,26.72
2023-05-02T10:27:00.926Z,26.87
2023-05-02T10:29:31.947Z,26.87
2023-05-02T10:32:02.567Z,26.89
2023-05-02T10:34:32.932Z,26.61
2023-05-02T10:36:59.824Z,26.70
2023-05-02T10:39:28.346Z,27.28
2023-05-02T10:41:58.087Z,26.27
2023-05-02T10:44:38.008Z,25.74
2023-05-02T10:47:20.819Z,25.81
2023-05-02T10:50:01.826Z,25.99
2023-05-02T10:52:31.554Z,24.88
2023-05-02T10:55:17.562Z,24.42
2023-05-02T10:57:59.455Z,24.59
2023-05-02T11:00:34.488Z,24.89
2023-05-02T11:03:02.598Z,26.34
2023-05-02T11:05:29.973Z,26.28
2023-05-02T11:08:15.447Z,27.15
2023-05-02T11:10:43.798Z,27.33
2023-05-02T11:13:10.704Z,26.40
2023-05-02T11:15:40.591Z,25.69
2023-05-02T11:18:12.669Z,26.13
2023-05-02T11:20:44.223Z,27.71
2023-05-02T11:23:17.145Z,27.37
2023-05-02T11:25:47.630Z,28.46
2023-05-02T11:28:45.447Z,26.76
2023-05-02T11:31:27.528Z,28.55
2023-05-02T11:34:02.204Z,28.42
2023-05-02T11:36:33.800Z,28.49
2023-05-02T11:39:04.804Z,27.07
2023-05-02T11:41:50.319Z,26.92
2023-05-02T11:44:17.208Z,26.28
2023-05-02T11:46:45.047Z,26.37
2023-05-02T11:49:15.282Z,26.68
2023-05-02T11:51:42.376Z,27.33
2023-05-02T11:54:09.287Z,27.99
2023-05-02T11:56:36.286Z,26.99
2023-05-02T11:59:04.287Z,27.11
2023-05-02T12:01:31.098Z,26.70
2023-05-02T12:04:08.718Z,26.07
2023-05-02T12:06:38.019Z,25.93
2023-05-02T12:09:08.746Z,26.14
2023-05-02T12:11:36.192Z,26.35
2023-05-02T12:14:04.404Z,28.48
2023-05-02T12:16:31.939Z,26.36
2023-05-02T12:18:59.190Z,26.99
2023-05-02T12:21:28.602Z,28.42
2023-05-02T12:23:56.587Z,28.68
2023-05-02T12:26:26.672Z,28.88
2023-05-02T12:28:54.910Z,27.83
2023-05-02T12:31:23.150Z,28.24
2023-05-02T12:33:50.390Z,29.35
2023-05-02T12:36:17.734Z,28.25
2023-05-02T12:38:58.983Z,28.82
2023-05-02T12:41:37.513Z,29.39
2023-05-02T12:44:05.646Z,28.63
2023-05-02T12:46:35.158Z,28.54
2023-05-02T12:49:07.445Z,28.58
2023-05-02T12:51:34.629Z,27.72
2023-05-02T12:54:02.441Z,28.74
2023-05-02T12:56:29.562Z,28.63
2023-05-02T12:58:56.434Z,28.95
2023-05-02T13:01:23.246Z,27.60
2023-05-02T13:03:51.988Z,28.26
2023-05-02T13:06:18.890Z,27.45
2023-05-02T13:08:45.728Z,27.82
2023-05-02T13:11:13.014Z,28.95
2023-05-02T13:13:46.328Z,28.28
2023-05-02T13:16:13.314Z,27.98
2023-05-02T13:18:40.252Z,28.10
2023-05-02T13:21:07.195Z,27.37
2023-05-02T13:23:34.125Z,27.26
2023-05-02T13:26:00.970Z,27.72
2023-05-02T13:28:27.854Z,28.06
2023-05-02T13:30:54.908Z,26.92
2023-05-02T13:33:21.942Z,25.84
2023-05-02T13:35:48.808Z,26.10
2023-05-02T13:38:15.704Z,26.90
2023-05-02T13:40:42.706Z,26.72
2023-05-02T13:43:09.593Z,26.45
2023-05-02T13:45:36.646Z,25.52
2023-05-02T13:48:03.611Z,26.67
2023-05-02T13:50:30.492Z,25.04
2023-05-02T13:52:57.407Z,25.94
2023-05-02T13:55:24.213Z,26.98
2023-05-02T13:57:50.954Z,26.38
2023-05-02T14:00:18.078Z,24.56
2023-05-02T14:02:44.870Z,25.83
2023-05-02T14:05:11.762Z,25.95
2023-05-02T14:07:38.624Z,25.26
2023-05-02T14:10:06.097Z,25.96
2023-05-02T14:12:32.906Z,25.10
2023-05-02T14:14:59.967Z,24.65
2023-05-02T14:17:26.837Z,24.97
2023-05-02T14:19:53.719Z,25.69
2023-05-02T14:22:20.607Z,25.50
2023-05-02T14:24:47.381Z,25.96
2023-05-02T14:27:14.142Z,24.81
2023-05-02T14:29:41.219Z,25.63
2023-05-02T14:32:08.069Z,25.26
2023-05-02T14:34:34.901Z,24.87
2023-05-02T14:37:01.876Z,24.69
2023-05-02T14:39:28.746Z,25.18
2023-05-02T14:41:55.541Z,24.42
2023-05-02T14:44:22.373Z,23.58
2023-05-02T14:46:49.231Z,23.58
2023-05-02T14:49:16.146Z,23.46
2023-05-02T14:51:43.089Z,22.88
2023-05-02T14:54:09.959Z,23.92
2023-05-02T14:56:36.849Z,23.74
2023-05-02T14:59:03.796Z,24.28
2023-05-02T15:01:30.820Z,24.75
2023-05-02T15:04:06.642Z,23.28
2023-05-02T15:06:34.932Z,23.16
2023-05-02T15:09:02.182Z,23.29
2023-05-02T15:11:28.990Z,22.90
2023-05-02T15:13:57.494Z,23.72
2023-05-02T15:16:26.092Z,22.60
2023-05-02T15:18:52.921Z,24.20
2023-05-02T15:21:19.933Z,24.46
2023-05-02T15:23:46.798Z,25.82
2023-05-02T15:26:13.762Z,26.08
2023-05-02T15:28:43.124Z,26.53
2023-05-02T15:31:09.986Z,27.82
2023-05-02T15:33:38.158Z,28.90
2023-05-02T15:36:05.218Z,27.63
2023-05-02T15:38:32.214Z,28.21
2023-05-02T15:41:03.585Z,28.55
2023-05-02T15:43:30.780Z,28.64
2023-05-02T15:45:59.501Z,28.35
2023-05-02T15:48:33.470Z,28.27
2023-05-02T15:51:00.730Z,27.21
2023-05-02T15:53:28.570Z,27.95
2023-05-02T15:55:55.495Z,26.87
2023-05-02T15:58:22.395Z,26.17
2023-05-02T16:00:49.256Z,26.92
2023-05-02T16:03:16.213Z,26.75
2023-05-02T16:05:43.149Z,26.88
2023-05-02T16:08:09.921Z,27.02
2023-05-02T16:10:37.361Z,27.35
2023-05-02T16:13:04.180Z,26.88
2023-05-02T16:15:33.864Z,26.34
2023-05-02T16:18:00.878Z,27.02
2023-05-02T16:20:27.833Z,27.20
2023-05-02T16:22:57.133Z,27.22
2023-05-02T16:25:23.987Z,27.05
2023-05-02T16:27:50.861Z,27.44
2023-05-02T16:30:17.915Z,27.62
2023-05-02T16:32:45.072Z,27.75
2023-05-02T16:35:12.132Z,27.92
2023-05-02T16:37:40.825Z,28.30
2023-05-02T16:40:11.316Z,28.88
2023-05-02T16:42:38.667Z,28.99
2023-05-02T16:45:06.137Z,29.28
2023-05-02T16:47:36.039Z,28.53
2023-05-02T16:50:03.596Z,29.26
2023-05-02T16:52:30.641Z,29.86
2023-05-02T16:54:57.532Z,29.15
2023-05-02T16:57:24.420Z,29.83
2023-05-02T16:59:52.839Z,29.35
2023-05-02T17:02:21.099Z,29.65
2023-05-02T17:04:49.411Z,29.93
2023-05-02T17:07:17.047Z,30.66
2023-05-02T17:09:44.441Z,30.43
2023-05-02T17:12:12.471Z,30.81
2023-05-02T17:14:40.240Z,31.04
2023-05-02T17:17:07.520Z,31.03
2023-05-02T17:19:34.534Z,31.20
2023-05-02T17:22:02.098Z,31.26
2023-05-02T17:24:29.383Z,31.25
2023-05-02T17:26:56.390Z,30.98
2023-05-02T17:29:23.287Z,31.18
2023-05-02T17:31:50.515Z,31.09
2023-05-02T17:34:17.645Z,31.36
2023-05-02T17:36:47.381Z,31.53
2023-05-02T17:39:14.465Z,31.43
2023-05-02T17:41:41.362Z,31.93
2023-05-02T17:44:08.182Z,31.89
2023-05-02T17:46:35.143Z,32.08
2023-05-02T17:49:02.045Z,32.15
2023-05-02T17:51:28.970Z,32.15
2023-05-02T17:53:55.889Z,31.40
2023-05-02T17:56:22.714Z,31.69
2023-05-02T17:58:49.509Z,31.29
2023-05-02T18:01:16.539Z,31.89
2023-05-02T18:03:43.504Z,32.03
2023-05-02T18:06:16.410Z,32.21
2023-05-02T18:08:45.433Z,32.48
2023-05-02T18:11:17.196Z,32.44
2023-05-02T18:13:45.013Z,32.80
2023-05-02T18:16:12.410Z,32.61
2023-05-02T18:18:39.480Z,32.74
2023-05-02T18:21:06.481Z,32.73
2023-05-02T18:23:33.976Z,33.25
2023-05-02T18:26:04.104Z,33.50
2023-05-02T18:28:30.965Z,34.08
2023-05-02T18:30:57.897Z,34.18
2023-05-02T18:33:24.859Z,34.47
2023-05-02T18:35:51.870Z,34.59
2023-05-02T18:38:18.722Z,34.73
2023-05-02T18:40:45.822Z,35.37
2023-05-02T18:43:12.959Z,35.35
2023-05-02T18:45:40.410Z,34.72
2023-05-02T18:48:07.594Z,34.92
2023-05-02T18:50:34.505Z,34.83
2023-05-02T18:53:01.380Z,34.90
2023-05-02T18:55:28.247Z,34.93
2023-05-02T18:57:55.210Z,35.36
2023-05-02T19:00:22.281Z,35.16
2023-05-02T19:02:52.166Z,35.04
2023-05-02T19:05:19.315Z,35.12
2023-05-02T19:07:46.284Z,35.37
2023-05-02T19:10:13.266Z,35.13
2023-05-02T19:12:42.594Z,35.65
2023-05-02T19:15:12.085Z,35.64
2023-05-02T19:17:40.828Z,35.47
2023-05-02T19:20:08.707Z,35.50
2023-05-02T19:22:35.881Z,35.67
2023-05-02T19:25:05.499Z,35.89
2023-05-02T19:27:32.567Z,36.08
2023-05-02T19:29:59.406Z,36.19
2023-05-02T19:32:26.533Z,35.81
2023-05-02T19:34:53.506Z,35.93
2023-05-02T19:37:20.483Z,35.60
2023-05-02T19:39:47.326Z,36.01
2023-05-02T19:42:14.305Z,36.19
2023-05-02T19:44:41.357Z,35.69
2023-05-02T19:47:08.310Z,35.94
2023-05-02T19:49:35.310Z,35.84
2023-05-02T19:52:02.170Z,35.70
2023-05-02T19:54:32.324Z,36.46
2023-05-02T19:56:59.766Z,36.51
2023-05-02T19:59:26.690Z,36.21
2023-05-02T20:01:53.480Z,37.18
2023-05-02T20:04:23.250Z,37.06
2023-05-02T20:06:50.178Z,36.50
2023-05-02T20:09:20.310Z,36.48
2023-05-02T20:11:47.196Z,36.91
2023-05-02T20:14:14.013Z,36.63
2023-05-02T20:16:40.887Z,36.55
2023-05-02T20:19:07.872Z,36.23
2023-05-02T20:21:34.755Z,36.76
2023-05-02T20:24:01.563Z,36.42
2023-05-02T20:26:31.081Z,36.23
2023-05-02T20:28:57.901Z,35.99
2023-05-02T20:31:27.665Z,36.18
2023-05-02T20:33:54.746Z,36.10
2023-05-02T20:36:21.623Z,36.95
2023-05-02T20:38:48.369Z,36.84
2023-05-02T20:41:15.252Z,36.91
2023-05-02T20:43:42.153Z,37.24
2023-05-02T20:46:10.297Z,37.77
2023-05-02T20:48:37.390Z,38.01
2023-05-02T20:51:04.422Z,37.71
2023-05-02T20:53:31.270Z,37.83
2023-05-02T20:55:58.196Z,37.51
2023-05-02T20:58:24.976Z,37.76
2023-05-02T21:00:51.781Z,37.95
2023-05-02T21:03:19.267Z,38.97
2023-05-02T21:05:50.777Z,38.83
2023-05-02T21:08:17.745Z,38.88
2023-05-02T21:10:46.290Z,39.44
2023-05-02T21:13:13.433Z,39.87
2023-05-02T21:15:40.944Z,39.87
2023-05-02T21:18:08.091Z,42.21
2023-05-02T21:20:35.016Z,44.55
2023-05-02T21:23:02.687Z,43.09
2023-05-02T21:25:29.737Z,43.61
2023-05-02T21:27:56.599Z,43.95
2023-05-02T21:30:23.589Z,43.28
2023-05-02T21:32:50.427Z,42.25
2023-05-02T21:35:17.307Z,43.19
2023-05-02T21:37:44.115Z,45.15
2023-05-02T21:40:11.640Z,43.24
2023-05-02T21:42:38.437Z,42.61
2023-05-02T21:45:06.190Z,43.22
2023-05-02T21:47:33.208Z,41.89
2023-05-02T21:50:00.242Z,41.60
2023-05-02T21:52:27.380Z,42.39
2023-05-02T21:54:54.338Z,42.20
2023-05-02T21:57:21.149Z,42.06
2023-05-02T21:59:47.885Z,43.28
2023-05-02T22:02:14.812Z,43.18
2023-05-02T22:04:41.635Z,44.46
2023-05-02T22:07:08.553Z,44.42
2023-05-02T22:09:35.444Z,45.53
2023-05-02T22:12:02.225Z,44.51
2023-05-02T22:14:37.554Z,44.06
2023-05-02T22:17:10.927Z,43.23
2023-05-02T22:19:37.823Z,43.20
2023-05-02T22:22:05.241Z,42.78
2023-05-02T22:24:32.184Z,42.54
2023-05-02T22:26:59.006Z,43.72
2023-05-02T22:29:25.823Z,44.47
2023-05-02T22:31:52.832Z,43.69
2023-05-02T22:34:19.715Z,43.83
2023-05-02T22:36:46.576Z,44.46
2023-05-02T22:39:13.535Z,45.45
2023-05-02T22:41:40.346Z,46.69
2023-05-02T22:44:07.160Z,44.97
2023-05-02T22:46:34.208Z,44.61
2023-05-02T22:49:00.995Z,44.65
2023-05-02T22:51:27.930Z,44.91
2023-05-02T22:53:57.325Z,44.75
2023-05-02T22:56:24.393Z,44.93
2023-05-02T22:58:51.236Z,44.90
2023-05-02T23:01:18.220Z,44.38
2023-05-02T23:03:45.260Z,47.30
2023-05-02T23:06:12.210Z,47.17
2023-05-02T23:08:39.112Z,46.66
2023-05-02T23:11:06.053Z,45.90
2023-05-02T23:13:32.825Z,45.46
2023-05-02T23:15:59.753Z,46.16
2023-05-02T23:18:26.584Z,48.06
2023-05-02T23:20:53.441Z,50.21
2023-05-02T23:23:20.281Z,48.65
2023-05-02T23:25:47.125Z,49.09
2023-05-02T23:28:13.946Z,48.85
2023-05-02T23:30:41.018Z,47.40
2023-05-02T23:33:08.005Z,47.14
2023-05-02T23:35:35.850Z,47.24
2023-05-02T23:38:06.669Z,47.21
2023-05-02T23:40:34.551Z,47.01
2023-05-02T23:43:01.631Z,47.02
2023-05-02T23:45:28.636Z,47.03
2023-05-02T23:47:55.470Z,46.90
2023-05-02T23:50:22.300Z,46.36
2023-05-02T23:52:49.097Z,45.82
2023-05-02T23:55:16.008Z,46.71
2023-05-02T23:57:42.852Z,47.68
